METAR Data
IDs: Format: Raw Decoded Include TAF

Data at: 1043 UTC 28 Sep 2021

EBFN 281025Z 19010KT 9999 FEW028 SCT230 17/10 Q1021 BLU BLU